createdAt,value
2018-07-31T00:01:16.573Z,97.10
2018-07-31T00:03:45.111Z,97.30
2018-07-31T00:06:18.643Z,97.40
2018-07-31T00:08:47.972Z,97.30
2018-07-31T00:11:16.527Z,97.30
2018-07-31T00:13:45.150Z,97.80
2018-07-31T00:16:13.828Z,98.00
2018-07-31T00:18:42.467Z,98.00
2018-07-31T00:21:11.155Z,98.40
2018-07-31T00:23:39.717Z,98.80
2018-07-31T00:26:08.455Z,98.70
2018-07-31T00:28:37.103Z,99.00
2018-07-31T00:31:05.901Z,99.20
2018-07-31T00:33:34.817Z,99.50
2018-07-31T00:36:03.703Z,99.50
2018-07-31T00:38:32.250Z,99.90
2018-07-31T00:41:00.810Z,99.80
2018-07-31T00:43:29.383Z,99.90
2018-07-31T00:45:57.988Z,99.90
2018-07-31T00:48:26.572Z,99.90
2018-07-31T00:50:55.284Z,99.90
2018-07-31T00:53:23.851Z,99.90
2018-07-31T00:55:52.436Z,99.90
2018-07-31T00:58:21.040Z,99.90
2018-07-31T01:00:49.585Z,99.90
2018-07-31T01:03:18.181Z,99.90
2018-07-31T01:05:46.757Z,99.90
2018-07-31T01:08:15.506Z,99.90
2018-07-31T01:10:44.111Z,99.90
2018-07-31T01:13:12.771Z,99.90
2018-07-31T01:15:41.384Z,99.90
2018-07-31T01:18:10.049Z,99.90
2018-07-31T01:20:38.723Z,99.90
2018-07-31T01:23:07.296Z,99.90
2018-07-31T01:25:35.827Z,99.90
2018-07-31T01:28:04.395Z,99.90
2018-07-31T01:30:32.970Z,99.90
2018-07-31T01:33:01.527Z,99.90
2018-07-31T01:35:30.048Z,99.90
2018-07-31T01:37:58.645Z,99.90
2018-07-31T01:40:27.204Z,99.90
2018-07-31T01:42:55.772Z,99.90
2018-07-31T01:45:24.289Z,99.90
2018-07-31T01:47:52.914Z,99.90
2018-07-31T01:50:21.494Z,99.90
2018-07-31T01:52:50.098Z,99.90
2018-07-31T01:55:18.681Z,99.90
2018-07-31T01:57:47.318Z,99.90
2018-07-31T02:00:15.922Z,99.90
2018-07-31T02:02:45.767Z,99.90
2018-07-31T02:05:14.509Z,99.90
2018-07-31T02:07:43.167Z,99.90
2018-07-31T02:10:11.759Z,99.90
2018-07-31T02:12:40.382Z,99.90
2018-07-31T02:15:08.976Z,99.90
2018-07-31T02:17:37.572Z,99.90
2018-07-31T02:20:06.135Z,99.90
2018-07-31T02:22:34.715Z,99.90
2018-07-31T02:25:03.283Z,99.90
2018-07-31T02:27:31.850Z,99.90
2018-07-31T02:30:05.775Z,99.90
2018-07-31T02:32:34.374Z,99.90
2018-07-31T02:35:02.980Z,99.90
2018-07-31T02:37:31.592Z,99.90
2018-07-31T02:40:00.175Z,99.90
2018-07-31T02:42:28.760Z,99.90
2018-07-31T02:44:57.295Z,99.90
2018-07-31T02:47:25.876Z,99.90
2018-07-31T02:49:54.454Z,99.90
2018-07-31T02:52:22.997Z,99.90
2018-07-31T02:54:51.603Z,99.90
2018-07-31T02:57:20.177Z,99.90
2018-07-31T02:59:48.740Z,99.90
2018-07-31T03:02:17.335Z,99.90
2018-07-31T03:04:45.987Z,99.90
2018-07-31T03:07:14.607Z,99.90
2018-07-31T03:09:43.207Z,99.90
2018-07-31T03:12:11.769Z,99.90
2018-07-31T03:14:40.350Z,99.90
2018-07-31T03:17:08.895Z,99.90
2018-07-31T03:19:37.464Z,99.90
2018-07-31T03:22:06.174Z,99.90
2018-07-31T03:24:34.830Z,99.90
2018-07-31T03:27:03.439Z,99.90
2018-07-31T03:29:31.998Z,99.90
2018-07-31T03:32:00.528Z,99.90
2018-07-31T03:34:29.112Z,99.90
2018-07-31T03:36:57.653Z,99.90
2018-07-31T03:39:26.226Z,99.90
2018-07-31T03:41:54.800Z,99.90
2018-07-31T03:44:23.366Z,99.90
2018-07-31T03:46:51.931Z,99.90
2018-07-31T03:49:20.554Z,99.90
2018-07-31T03:51:49.128Z,99.90
2018-07-31T03:54:17.735Z,99.90
2018-07-31T03:56:46.286Z,99.90
2018-07-31T03:59:14.940Z,99.90
2018-07-31T04:01:43.522Z,99.90
2018-07-31T04:04:12.127Z,99.90
2018-07-31T04:06:40.650Z,99.90
2018-07-31T04:09:10.930Z,99.90
2018-07-31T04:11:39.498Z,99.90
2018-07-31T04:14:08.122Z,99.90
2018-07-31T04:16:36.664Z,99.90
2018-07-31T04:19:05.266Z,99.90
2018-07-31T04:21:33.842Z,99.90
2018-07-31T04:24:02.407Z,99.90
2018-07-31T04:26:30.942Z,99.90
2018-07-31T04:28:59.501Z,99.90
2018-07-31T04:31:28.022Z,99.90
2018-07-31T04:33:56.588Z,99.90
2018-07-31T04:36:25.182Z,99.90
2018-07-31T04:38:53.731Z,99.90
2018-07-31T04:41:22.348Z,99.90
2018-07-31T04:43:50.924Z,99.90
2018-07-31T04:46:19.576Z,99.90
2018-07-31T04:48:48.166Z,99.90
2018-07-31T04:51:16.804Z,99.90
2018-07-31T04:53:45.426Z,99.90
2018-07-31T04:56:14.068Z,99.90
2018-07-31T04:58:42.695Z,99.90
2018-07-31T05:01:11.326Z,99.90
2018-07-31T05:03:39.838Z,99.90
2018-07-31T05:06:08.397Z,99.90
2018-07-31T05:08:36.918Z,99.90
2018-07-31T05:11:05.617Z,99.50
2018-07-31T05:13:34.179Z,99.00
2018-07-31T05:16:02.829Z,99.30
2018-07-31T05:18:31.446Z,99.00
2018-07-31T05:21:00.034Z,98.20
2018-07-31T05:23:28.642Z,97.70
2018-07-31T05:25:57.257Z,97.90
2018-07-31T05:28:25.894Z,97.70
2018-07-31T05:30:54.616Z,97.30
2018-07-31T05:33:23.417Z,97.90
2018-07-31T05:35:52.095Z,97.40
2018-07-31T05:38:20.776Z,96.30
2018-07-31T05:40:49.508Z,95.80
2018-07-31T05:43:18.202Z,94.80
2018-07-31T05:45:46.886Z,94.40
2018-07-31T05:48:15.588Z,94.60
2018-07-31T05:50:44.363Z,94.40
2018-07-31T05:53:12.960Z,94.90
2018-07-31T05:55:41.540Z,93.60
2018-07-31T05:58:10.108Z,92.70
2018-07-31T06:00:38.874Z,93.10
2018-07-31T06:03:07.421Z,94.40
2018-07-31T06:05:36.015Z,91.60
2018-07-31T06:08:04.706Z,92.50
2018-07-31T06:10:33.351Z,92.60
2018-07-31T06:13:01.951Z,94.00
2018-07-31T06:15:30.563Z,92.50
2018-07-31T06:17:59.140Z,92.00
2018-07-31T06:20:27.771Z,90.90
2018-07-31T06:22:56.496Z,87.80
2018-07-31T06:25:25.342Z,84.20
2018-07-31T06:27:54.084Z,84.00
2018-07-31T06:30:23.101Z,80.10
2018-07-31T06:32:51.823Z,77.70
2018-07-31T06:35:20.550Z,77.50
2018-07-31T06:37:49.285Z,82.30
2018-07-31T06:40:18.412Z,82.30
2018-07-31T06:42:47.534Z,76.50
2018-07-31T06:45:16.621Z,76.80
2018-07-31T06:47:45.934Z,77.00
2018-07-31T06:50:15.092Z,71.80
2018-07-31T06:52:43.980Z,71.20
2018-07-31T06:55:12.698Z,72.70
2018-07-31T06:57:41.350Z,69.00
2018-07-31T07:00:10.004Z,72.10
2018-07-31T07:02:40.489Z,71.00
2018-07-31T07:05:09.122Z,71.40
2018-07-31T07:07:37.710Z,74.20
2018-07-31T07:10:06.477Z,67.30
2018-07-31T07:12:35.027Z,68.20
2018-07-31T07:15:03.555Z,65.90
2018-07-31T07:17:32.101Z,63.40
2018-07-31T07:20:00.690Z,64.00
2018-07-31T07:22:29.402Z,64.40
2018-07-31T07:24:58.059Z,62.90
2018-07-31T07:27:27.753Z,68.00
2018-07-31T07:29:56.298Z,57.20
2018-07-31T07:32:24.961Z,57.90
2018-07-31T07:34:53.723Z,59.20
2018-07-31T07:37:22.465Z,55.50
2018-07-31T07:39:51.180Z,55.80
2018-07-31T07:42:20.136Z,57.30
2018-07-31T07:45:03.598Z,54.70
2018-07-31T07:47:35.381Z,52.40
2018-07-31T07:50:04.539Z,52.80
2018-07-31T07:52:33.215Z,52.00
2018-07-31T07:55:01.903Z,51.90
2018-07-31T07:57:30.668Z,51.90
2018-07-31T07:59:59.427Z,51.30
2018-07-31T08:02:28.264Z,48.80
2018-07-31T08:04:57.149Z,51.90
2018-07-31T08:07:25.833Z,48.20
2018-07-31T08:09:54.752Z,48.80
2018-07-31T08:12:23.584Z,49.00
2018-07-31T08:14:52.711Z,47.10
2018-07-31T08:17:22.583Z,46.00
2018-07-31T08:19:51.413Z,45.50
2018-07-31T08:22:20.232Z,45.70
2018-07-31T08:24:48.998Z,45.50
2018-07-31T08:27:17.887Z,45.30
2018-07-31T08:29:46.791Z,46.40
2018-07-31T08:32:18.113Z,45.00
2018-07-31T08:34:47.322Z,45.00
2018-07-31T08:37:17.705Z,43.80
2018-07-31T08:39:46.824Z,44.30
2018-07-31T08:42:15.809Z,43.00
2018-07-31T08:44:44.825Z,43.20
2018-07-31T08:47:13.578Z,41.20
2018-07-31T08:49:42.412Z,42.50
2018-07-31T08:52:11.099Z,38.70
2018-07-31T08:54:40.171Z,39.00
2018-07-31T08:57:10.891Z,39.00
2018-07-31T08:59:39.971Z,39.30
2018-07-31T09:02:08.783Z,38.10
2018-07-31T09:04:37.571Z,40.10
2018-07-31T09:07:06.291Z,39.60
2018-07-31T09:09:35.042Z,39.20
2018-07-31T09:12:03.868Z,39.20
2018-07-31T09:14:32.642Z,38.00
2018-07-31T09:17:01.359Z,38.40
2018-07-31T09:19:31.162Z,38.70
2018-07-31T09:22:00.350Z,40.50
2018-07-31T09:24:30.303Z,38.40
2018-07-31T09:27:00.649Z,38.50
2018-07-31T09:29:37.363Z,37.60
2018-07-31T09:32:06.666Z,37.60
2018-07-31T09:34:52.015Z,38.40
2018-07-31T09:37:20.767Z,37.70
2018-07-31T09:39:49.508Z,37.90
2018-07-31T09:42:18.248Z,38.00
2018-07-31T09:44:47.120Z,37.70
2018-07-31T09:47:15.812Z,38.00
2018-07-31T09:49:44.760Z,38.00
2018-07-31T09:52:13.578Z,39.00
2018-07-31T09:54:42.521Z,38.60
2018-07-31T09:57:11.283Z,39.40
2018-07-31T09:59:41.648Z,38.20
2018-07-31T10:02:10.783Z,37.80
2018-07-31T10:04:39.581Z,37.40
2018-07-31T10:07:08.371Z,36.70
2018-07-31T10:09:37.290Z,35.90
2018-07-31T10:12:06.152Z,37.00
2018-07-31T10:14:34.922Z,37.60
2018-07-31T10:17:03.927Z,37.80
2018-07-31T10:19:32.582Z,38.70
2018-07-31T10:22:01.286Z,39.60
2018-07-31T10:24:30.059Z,39.90
2018-07-31T10:26:58.830Z,38.40
2018-07-31T10:29:27.922Z,37.20
2018-07-31T10:31:57.395Z,37.60
2018-07-31T10:34:26.607Z,39.60
2018-07-31T10:36:55.357Z,40.20
2018-07-31T10:39:24.173Z,40.00
2018-07-31T10:41:52.943Z,37.00
2018-07-31T10:44:21.792Z,37.00
2018-07-31T10:46:50.507Z,36.70
2018-07-31T10:49:19.381Z,37.20
2018-07-31T10:51:48.183Z,37.40
2018-07-31T10:54:16.820Z,37.50
2018-07-31T10:56:45.496Z,37.70
2018-07-31T10:59:14.676Z,38.20
2018-07-31T11:01:43.385Z,38.00
2018-07-31T11:04:12.165Z,36.20
2018-07-31T11:06:41.281Z,38.20
2018-07-31T11:09:11.250Z,38.70
2018-07-31T11:11:40.406Z,39.40
2018-07-31T11:14:09.676Z,36.90
2018-07-31T11:16:38.426Z,38.40
2018-07-31T11:19:07.044Z,37.20
2018-07-31T11:21:35.725Z,37.20
2018-07-31T11:24:04.367Z,37.80
2018-07-31T11:26:32.961Z,37.40
2018-07-31T11:29:01.689Z,37.30
2018-07-31T11:31:30.515Z,36.80
2018-07-31T11:34:00.421Z,38.00
2018-07-31T11:36:29.229Z,37.90
2018-07-31T11:38:58.043Z,37.40
2018-07-31T11:41:27.035Z,36.40
2018-07-31T11:43:55.903Z,37.50
2018-07-31T11:46:24.868Z,37.30
2018-07-31T11:48:53.627Z,37.60
2018-07-31T11:51:22.347Z,36.90
2018-07-31T11:53:51.035Z,38.60
2018-07-31T11:56:19.810Z,37.40
2018-07-31T11:58:48.548Z,38.20
2018-07-31T12:01:17.292Z,38.00
2018-07-31T12:03:46.050Z,37.20
2018-07-31T12:06:14.749Z,37.20
2018-07-31T12:08:43.496Z,36.60
2018-07-31T12:11:12.180Z,37.20
2018-07-31T12:13:40.915Z,37.50
2018-07-31T12:16:09.598Z,37.20
2018-07-31T12:18:38.279Z,37.30
2018-07-31T12:21:07.021Z,37.10
2018-07-31T12:23:35.726Z,37.40
2018-07-31T12:26:04.320Z,36.00
2018-07-31T12:28:32.923Z,37.50
2018-07-31T12:31:01.569Z,36.20
2018-07-31T12:33:30.300Z,37.30
2018-07-31T12:35:59.036Z,36.20
2018-07-31T12:38:27.752Z,36.00
2018-07-31T12:40:56.502Z,36.10
2018-07-31T12:43:25.254Z,36.10
2018-07-31T12:45:53.980Z,36.20
2018-07-31T12:48:22.929Z,35.50
2018-07-31T12:50:51.770Z,35.10
2018-07-31T12:53:20.612Z,34.60
2018-07-31T12:55:49.416Z,34.70
2018-07-31T12:58:18.300Z,34.80
2018-07-31T13:00:47.104Z,35.00
2018-07-31T13:03:15.969Z,34.70
2018-07-31T13:05:44.986Z,34.30
2018-07-31T13:08:14.806Z,35.20
2018-07-31T13:10:43.653Z,34.70
2018-07-31T13:13:12.523Z,33.60
2018-07-31T13:15:41.375Z,33.40
2018-07-31T13:18:10.110Z,33.40
2018-07-31T13:20:39.017Z,31.90
2018-07-31T13:23:07.984Z,32.30
2018-07-31T13:25:37.762Z,33.70
2018-07-31T13:28:07.971Z,33.70
2018-07-31T13:30:46.616Z,32.60
2018-07-31T13:33:16.206Z,32.20
2018-07-31T13:35:45.019Z,32.10
2018-07-31T13:38:14.568Z,32.90
2018-07-31T13:40:43.298Z,32.60
2018-07-31T13:43:12.199Z,32.20
2018-07-31T13:45:40.882Z,32.70
2018-07-31T13:48:09.589Z,33.60
2018-07-31T13:50:38.665Z,32.20
2018-07-31T13:53:07.715Z,32.40
2018-07-31T13:55:36.386Z,31.40
2018-07-31T13:58:06.072Z,31.80
2018-07-31T14:00:35.356Z,32.00
2018-07-31T14:03:07.940Z,30.70
2018-07-31T14:05:37.325Z,32.00
2018-07-31T14:08:06.267Z,31.80
2018-07-31T14:10:36.138Z,31.10
2018-07-31T14:13:04.775Z,31.40
2018-07-31T14:15:33.519Z,31.10
2018-07-31T14:18:02.355Z,30.40
2018-07-31T14:20:31.093Z,30.40
2018-07-31T14:22:59.760Z,31.00
2018-07-31T14:25:28.600Z,31.20
2018-07-31T14:27:58.540Z,30.10
2018-07-31T14:30:27.921Z,30.50
2018-07-31T14:32:58.374Z,31.20
2018-07-31T14:35:28.505Z,30.80
2018-07-31T14:37:57.869Z,30.90
2018-07-31T14:40:27.437Z,31.10
2018-07-31T14:42:57.378Z,30.90
2018-07-31T14:45:27.575Z,31.60
2018-07-31T14:47:56.992Z,31.80
2018-07-31T14:50:27.727Z,33.00
2018-07-31T14:53:00.811Z,33.60
2018-07-31T14:55:29.938Z,34.40
2018-07-31T14:57:59.710Z,32.20
2018-07-31T15:00:28.809Z,31.40
2018-07-31T15:03:01.588Z,32.60
2018-07-31T15:05:30.924Z,32.70
2018-07-31T15:07:59.904Z,31.10
2018-07-31T15:10:28.699Z,32.10
2018-07-31T15:12:57.601Z,32.40
2018-07-31T15:15:26.499Z,32.80
2018-07-31T15:17:55.270Z,33.20
2018-07-31T15:20:24.123Z,34.00
2018-07-31T15:22:54.080Z,33.70
2018-07-31T15:25:23.051Z,32.10
2018-07-31T15:27:52.355Z,33.70
2018-07-31T15:30:21.137Z,32.80
2018-07-31T15:32:50.277Z,31.70
2018-07-31T15:35:19.181Z,32.50
2018-07-31T15:37:48.065Z,32.90
2018-07-31T15:40:17.142Z,31.80
2018-07-31T15:42:46.960Z,32.50
2018-07-31T15:45:16.138Z,32.50
2018-07-31T15:47:45.171Z,32.80
2018-07-31T15:50:14.088Z,32.60
2018-07-31T15:52:43.369Z,31.60
2018-07-31T15:55:12.318Z,31.40
2018-07-31T15:57:47.775Z,32.30
2018-07-31T16:00:18.733Z,31.70
2018-07-31T16:02:48.408Z,32.60
2018-07-31T16:05:17.282Z,32.10
2018-07-31T16:07:47.702Z,31.80
2018-07-31T16:10:16.513Z,33.00
2018-07-31T16:12:46.331Z,32.70
2018-07-31T16:15:16.354Z,32.00
2018-07-31T16:17:46.578Z,32.60
2018-07-31T16:20:16.998Z,32.80
2018-07-31T16:22:47.286Z,32.40
2018-07-31T16:25:16.885Z,32.90
2018-07-31T16:27:46.789Z,33.50
2018-07-31T16:30:16.501Z,33.50
2018-07-31T16:32:45.909Z,33.00
2018-07-31T16:35:16.175Z,33.70
2018-07-31T16:37:47.078Z,33.50
2018-07-31T16:40:16.930Z,32.80
2018-07-31T16:42:46.889Z,33.90
2018-07-31T16:45:16.756Z,34.20
2018-07-31T16:47:47.120Z,34.70
2018-07-31T16:50:16.312Z,35.30
2018-07-31T16:52:48.333Z,35.00
2018-07-31T16:55:17.869Z,34.10
2018-07-31T16:57:49.341Z,34.70
2018-07-31T17:00:45.540Z,35.30
2018-07-31T17:03:15.947Z,34.30
2018-07-31T17:05:46.085Z,34.50
2018-07-31T17:08:16.119Z,35.20
2018-07-31T17:10:46.449Z,34.50
2018-07-31T17:13:15.080Z,35.20
2018-07-31T17:15:43.662Z,34.80
2018-07-31T17:18:12.231Z,36.00
2018-07-31T17:20:40.809Z,36.80
2018-07-31T17:23:09.375Z,37.10
2018-07-31T17:25:37.895Z,37.70
2018-07-31T17:28:06.515Z,36.40
2018-07-31T17:30:35.066Z,37.20
2018-07-31T17:33:03.697Z,37.00
2018-07-31T17:35:32.232Z,38.00
2018-07-31T17:38:00.867Z,37.70
2018-07-31T17:40:30.403Z,38.40
2018-07-31T17:42:59.096Z,39.20
2018-07-31T17:45:27.658Z,40.70
2018-07-31T17:47:56.320Z,41.40
2018-07-31T17:50:24.887Z,40.70
2018-07-31T17:52:53.590Z,39.20
2018-07-31T17:55:23.823Z,41.80
2018-07-31T17:57:52.503Z,41.30
2018-07-31T18:00:21.120Z,41.60
2018-07-31T18:02:49.957Z,41.90
2018-07-31T18:05:18.555Z,42.90
2018-07-31T18:07:47.140Z,45.10
2018-07-31T18:10:15.770Z,46.30
2018-07-31T18:12:44.416Z,47.30
2018-07-31T18:15:13.037Z,49.10
2018-07-31T18:17:41.672Z,50.00
2018-07-31T18:20:10.420Z,52.20
2018-07-31T18:22:38.998Z,53.50
2018-07-31T18:25:07.779Z,54.20
2018-07-31T18:27:36.350Z,55.70
2018-07-31T18:30:05.492Z,57.80
2018-07-31T18:32:34.078Z,59.20
2018-07-31T18:35:02.728Z,60.80
2018-07-31T18:37:31.282Z,63.40
2018-07-31T18:39:59.845Z,66.40
2018-07-31T18:42:29.056Z,69.50
2018-07-31T18:44:57.967Z,70.80
2018-07-31T18:47:26.726Z,72.60
2018-07-31T18:49:55.457Z,74.50
2018-07-31T18:52:24.143Z,76.00
2018-07-31T18:54:52.836Z,77.00
2018-07-31T18:57:21.464Z,79.10
2018-07-31T18:59:50.188Z,80.70
2018-07-31T19:02:18.873Z,83.10
2018-07-31T19:04:47.694Z,83.20
2018-07-31T19:07:16.563Z,83.80
2018-07-31T19:09:45.491Z,84.80
2018-07-31T19:12:14.233Z,85.80
2018-07-31T19:14:43.011Z,86.60
2018-07-31T19:17:11.771Z,87.00
2018-07-31T19:19:40.666Z,88.20
2018-07-31T19:22:10.241Z,89.00
2018-07-31T19:24:39.140Z,89.50
2018-07-31T19:27:07.908Z,90.10
2018-07-31T19:29:36.785Z,89.30
2018-07-31T19:32:05.814Z,89.20
2018-07-31T19:34:34.739Z,89.30
2018-07-31T19:37:03.383Z,90.20
2018-07-31T19:39:32.139Z,90.40
2018-07-31T19:42:00.956Z,90.60
2018-07-31T19:44:29.811Z,91.10
2018-07-31T19:46:58.599Z,91.70
2018-07-31T19:49:27.389Z,92.30
2018-07-31T19:51:56.327Z,92.30
2018-07-31T19:54:25.076Z,92.30
2018-07-31T19:56:54.088Z,92.00
2018-07-31T19:59:22.946Z,92.40
2018-07-31T20:01:51.667Z,92.50
2018-07-31T20:04:20.577Z,92.80
2018-07-31T20:06:49.478Z,93.00
2018-07-31T20:09:29.956Z,92.70
2018-07-31T20:11:58.889Z,93.20
2018-07-31T20:14:27.645Z,93.60
2018-07-31T20:16:56.445Z,93.30
2018-07-31T20:19:25.254Z,93.50
2018-07-31T20:21:54.325Z,93.80
2018-07-31T20:24:23.122Z,93.90
2018-07-31T20:26:52.021Z,93.90
2018-07-31T20:29:20.860Z,94.00
2018-07-31T20:31:50.679Z,94.50
2018-07-31T20:34:19.456Z,94.60
2018-07-31T20:36:48.308Z,93.70
2018-07-31T20:39:17.135Z,93.70
2018-07-31T20:41:46.044Z,93.30
2018-07-31T20:44:15.030Z,92.90
2018-07-31T20:46:43.847Z,93.20
2018-07-31T20:49:12.594Z,93.20
2018-07-31T20:51:41.439Z,93.40
2018-07-31T20:54:10.630Z,93.90
2018-07-31T20:56:39.421Z,94.00
2018-07-31T20:59:12.308Z,94.00
2018-07-31T21:01:41.866Z,93.70
2018-07-31T21:04:10.869Z,93.20
2018-07-31T21:06:39.724Z,93.30
2018-07-31T21:09:10.755Z,94.10
2018-07-31T21:11:39.533Z,94.20
2018-07-31T21:14:09.160Z,93.70
2018-07-31T21:16:38.290Z,94.10
2018-07-31T21:19:07.314Z,94.10
2018-07-31T21:21:36.071Z,94.60
2018-07-31T21:24:05.544Z,94.50
2018-07-31T21:26:34.190Z,94.30
2018-07-31T21:29:03.226Z,94.20
2018-07-31T21:31:33.390Z,94.50
2018-07-31T21:34:02.860Z,94.70
2018-07-31T21:36:35.436Z,95.30
2018-07-31T21:39:06.706Z,95.00
2018-07-31T21:41:35.450Z,94.80
2018-07-31T21:44:04.136Z,95.10
2018-07-31T21:46:32.799Z,95.40
2018-07-31T21:49:02.132Z,95.60
2018-07-31T21:51:33.642Z,95.90
2018-07-31T21:54:02.188Z,95.40
2018-07-31T21:56:31.718Z,95.80
2018-07-31T21:59:00.350Z,95.90
2018-07-31T22:01:28.915Z,96.30
2018-07-31T22:03:57.426Z,96.10
2018-07-31T22:06:26.012Z,96.00
2018-07-31T22:08:54.571Z,96.60
2018-07-31T22:11:23.115Z,96.70
2018-07-31T22:13:52.321Z,96.60
2018-07-31T22:16:20.992Z,96.50
2018-07-31T22:18:49.731Z,96.30
2018-07-31T22:21:18.367Z,96.40
2018-07-31T22:23:46.967Z,96.60
2018-07-31T22:26:15.529Z,97.10
2018-07-31T22:28:44.101Z,97.10
2018-07-31T22:31:12.931Z,97.20
2018-07-31T22:33:42.483Z,97.30
2018-07-31T22:36:11.043Z,97.10
2018-07-31T22:38:39.567Z,97.30
2018-07-31T22:41:08.133Z,97.60
2018-07-31T22:43:36.708Z,97.50
2018-07-31T22:46:05.255Z,97.50
2018-07-31T22:48:33.766Z,97.20
2018-07-31T22:51:02.316Z,96.60
2018-07-31T22:53:30.840Z,96.50
2018-07-31T22:55:59.399Z,96.60
2018-07-31T22:58:28.907Z,96.70
2018-07-31T23:00:57.447Z,97.00
2018-07-31T23:03:26.019Z,97.20
2018-07-31T23:05:54.550Z,97.70
2018-07-31T23:08:23.105Z,98.00
2018-07-31T23:10:51.675Z,97.60
2018-07-31T23:13:20.222Z,97.60
2018-07-31T23:15:48.761Z,97.50
2018-07-31T23:18:17.330Z,97.50
2018-07-31T23:20:45.910Z,97.60
2018-07-31T23:23:14.460Z,97.60
2018-07-31T23:25:43.046Z,97.40
2018-07-31T23:28:11.607Z,97.40
2018-07-31T23:30:40.131Z,97.60
2018-07-31T23:33:08.684Z,97.80
2018-07-31T23:35:37.224Z,97.90
2018-07-31T23:38:05.794Z,97.80
2018-07-31T23:40:34.301Z,97.80
2018-07-31T23:43:02.905Z,97.50
2018-07-31T23:45:31.514Z,97.10
2018-07-31T23:48:00.095Z,96.90
2018-07-31T23:50:28.644Z,96.90
2018-07-31T23:52:57.244Z,96.50
2018-07-31T23:55:25.838Z,96.20
2018-07-31T23:57:54.399Z,96.10
